createdAt,value
2019-04-10T00:03:32.814Z,21.77
2019-04-10T00:08:32.499Z,22.17
2019-04-10T00:13:37.056Z,22.70
2019-04-10T00:18:43.026Z,23.77
2019-04-10T00:23:47.388Z,22.93
2019-04-10T00:28:51.997Z,22.43
2019-04-10T00:33:56.973Z,22.87
2019-04-10T00:39:02.291Z,22.20
2019-04-10T00:44:08.403Z,23.00
2019-04-10T00:49:13.489Z,22.77
2019-04-10T00:54:18.165Z,22.83
2019-04-10T00:59:22.610Z,21.87
2019-04-10T01:04:27.021Z,21.70
2019-04-10T01:09:31.531Z,21.80
2019-04-10T01:14:35.985Z,22.50
2019-04-10T01:19:41.799Z,22.80
2019-04-10T01:24:46.277Z,23.37
2019-04-10T01:29:51.557Z,21.53
2019-04-10T01:34:56.002Z,23.30
2019-04-10T01:40:00.350Z,22.13
2019-04-10T01:45:06.256Z,22.87
2019-04-10T01:50:12.434Z,23.67
2019-04-10T01:55:24.273Z,23.97
2019-04-10T02:00:25.683Z,23.90
2019-04-10T02:05:30.340Z,23.50
2019-04-10T02:10:34.686Z,23.27
2019-04-10T02:15:39.067Z,23.97
2019-04-10T02:20:43.424Z,23.77
2019-04-10T02:25:47.813Z,23.13
2019-04-10T02:30:52.181Z,22.93
2019-04-10T02:35:57.143Z,22.20
2019-04-10T02:41:01.802Z,22.40
2019-04-10T02:46:08.206Z,23.63
2019-04-10T02:51:13.786Z,23.33
2019-04-10T02:56:20.700Z,23.40
2019-04-10T03:01:25.327Z,23.00
2019-04-10T03:06:30.994Z,22.97
2019-04-10T03:11:36.515Z,22.93
2019-04-10T03:16:41.743Z,23.27
2019-04-10T03:21:47.093Z,22.43
2019-04-10T03:26:52.154Z,22.57
2019-04-10T03:31:59.546Z,22.97
2019-04-10T03:37:04.403Z,22.70
2019-04-10T03:42:08.844Z,24.30
2019-04-10T03:47:13.352Z,24.40
2019-04-10T03:52:18.682Z,24.10
2019-04-10T03:57:23.394Z,24.00
2019-04-10T04:02:27.799Z,23.93
2019-04-10T04:07:32.621Z,23.07
2019-04-10T04:12:37.146Z,24.43
2019-04-10T04:17:41.556Z,24.07
2019-04-10T04:22:47.464Z,24.70
2019-04-10T04:27:51.968Z,23.57
2019-04-10T04:32:56.328Z,24.77
2019-04-10T04:38:00.689Z,23.27
2019-04-10T04:43:05.648Z,22.67
2019-04-10T04:48:10.252Z,24.60
2019-04-10T04:53:14.635Z,23.22
2019-04-10T04:58:20.193Z,23.03
2019-04-10T05:03:25.675Z,23.07
2019-04-10T05:08:30.295Z,22.47
2019-04-10T05:13:34.902Z,21.23
2019-04-10T05:18:39.307Z,20.47
2019-04-10T05:23:43.835Z,20.03
2019-04-10T05:28:48.632Z,18.73
2019-04-10T05:33:53.292Z,19.40
2019-04-10T05:38:57.850Z,19.53
2019-04-10T05:44:02.778Z,18.17
2019-04-10T05:49:07.270Z,19.20
2019-04-10T05:54:12.771Z,17.77
2019-04-10T05:59:17.171Z,18.00
2019-04-10T06:04:21.635Z,17.63
2019-04-10T06:09:26.870Z,16.67
2019-04-10T06:14:32.395Z,16.27
2019-04-10T06:19:36.900Z,16.93
2019-04-10T06:24:42.465Z,15.03
2019-04-10T06:29:48.384Z,14.77
2019-04-10T06:34:52.858Z,13.47
2019-04-10T06:40:08.028Z,11.93
2019-04-10T06:45:05.696Z,11.63
2019-04-10T06:50:10.654Z,12.40
2019-04-10T06:55:15.413Z,13.27
2019-04-10T07:00:21.285Z,12.13
2019-04-10T07:05:37.031Z,12.17
2019-04-10T07:10:43.735Z,10.90
2019-04-10T07:15:40.940Z,10.23
2019-04-10T07:20:46.167Z,9.60
2019-04-10T07:25:51.999Z,8.17
2019-04-10T07:31:00.250Z,8.30
2019-04-10T07:36:06.729Z,7.37
2019-04-10T07:41:14.331Z,7.17
2019-04-10T07:46:15.527Z,6.73
2019-04-10T07:51:21.066Z,7.40
2019-04-10T07:56:26.675Z,7.90
2019-04-10T08:01:31.242Z,8.33
2019-04-10T08:06:37.395Z,8.43
2019-04-10T08:11:42.506Z,8.43
2019-04-10T08:16:47.935Z,7.73
2019-04-10T08:21:52.776Z,8.37
2019-04-10T08:26:57.213Z,8.30
2019-04-10T08:32:01.607Z,8.60
2019-04-10T08:37:06.054Z,8.07
2019-04-10T08:42:10.709Z,8.28
2019-04-10T08:47:15.329Z,7.97
2019-04-10T08:52:19.949Z,7.80
2019-04-10T08:57:24.361Z,8.27
2019-04-10T09:02:28.739Z,9.13
2019-04-10T09:07:33.157Z,8.67
2019-04-10T09:12:37.529Z,8.13
2019-04-10T09:17:41.895Z,8.80
2019-04-10T09:23:10.628Z,7.60
2019-04-10T09:27:52.320Z,7.50
2019-04-10T09:32:57.062Z,7.27
2019-04-10T09:38:02.252Z,7.33
2019-04-10T09:43:07.346Z,7.20
2019-04-10T09:48:12.807Z,7.37
2019-04-10T09:53:17.201Z,7.50
2019-04-10T09:58:21.941Z,7.67
2019-04-10T10:03:26.383Z,6.90
2019-04-10T10:08:31.641Z,6.87
2019-04-10T10:13:37.267Z,6.63
2019-04-10T10:18:41.750Z,7.43
2019-04-10T10:23:46.473Z,7.17
2019-04-10T10:28:51.006Z,7.00
2019-04-10T10:33:56.458Z,6.73
2019-04-10T10:39:06.934Z,7.80
2019-04-10T10:44:08.992Z,7.43
2019-04-10T10:49:13.437Z,12.50
2019-04-10T10:54:18.917Z,7.00
2019-04-10T10:59:23.410Z,7.50
2019-04-10T11:04:27.844Z,8.03
2019-04-10T11:09:32.399Z,8.13
2019-04-10T11:14:39.503Z,8.50
2019-04-10T11:19:45.555Z,7.97
2019-04-10T11:24:51.172Z,7.90
2019-04-10T11:29:55.698Z,8.13
2019-04-10T11:35:00.047Z,8.10
2019-04-10T11:40:06.395Z,8.30
2019-04-10T11:45:11.472Z,7.93
2019-04-10T11:50:18.689Z,8.40
2019-04-10T11:55:27.076Z,7.43
2019-04-10T12:00:45.322Z,8.57
2019-04-10T12:05:46.194Z,8.60
2019-04-10T12:11:05.195Z,8.67
2019-04-10T12:15:56.700Z,8.67
2019-04-10T12:21:01.893Z,8.10
2019-04-10T12:26:07.541Z,9.77
2019-04-10T12:31:12.094Z,9.20
2019-04-10T12:36:18.301Z,8.83
2019-04-10T12:41:23.495Z,9.20
2019-04-10T12:46:28.912Z,9.10
2019-04-10T12:51:34.797Z,8.60
2019-04-10T12:56:40.167Z,8.10
2019-04-10T13:01:44.897Z,8.97
2019-04-10T13:06:52.328Z,8.50
2019-04-10T13:11:56.521Z,8.83
2019-04-10T13:17:01.253Z,7.83
2019-04-10T13:22:05.664Z,8.10
2019-04-10T13:27:10.419Z,7.70
2019-04-10T13:32:16.738Z,7.70
2019-04-10T13:37:21.020Z,7.13
2019-04-10T13:42:25.710Z,7.33
2019-04-10T13:47:30.499Z,7.37
2019-04-10T13:52:36.671Z,7.13
2019-04-10T13:57:41.030Z,7.33
2019-04-10T14:02:45.831Z,6.70
2019-04-10T14:07:51.275Z,6.67
2019-04-10T14:12:57.711Z,7.23
2019-04-10T14:18:02.017Z,6.83
2019-04-10T14:23:23.422Z,7.57
2019-04-10T14:28:29.409Z,6.50
2019-04-10T14:33:33.836Z,7.77
2019-04-10T14:38:39.073Z,6.20
2019-04-10T14:43:45.378Z,7.33
2019-04-10T14:48:50.658Z,6.53
2019-04-10T14:53:55.378Z,7.30
2019-04-10T14:59:01.021Z,7.20
2019-04-10T15:04:06.018Z,7.20
2019-04-10T15:09:24.032Z,7.67
2019-04-10T15:14:25.723Z,7.47
2019-04-10T15:19:32.289Z,7.40
2019-04-10T15:24:36.835Z,7.00
2019-04-10T15:29:41.212Z,7.47
2019-04-10T15:34:46.027Z,7.50
2019-04-10T15:39:50.462Z,6.93
2019-04-10T15:44:54.854Z,6.90
2019-04-10T15:49:59.884Z,8.77
2019-04-10T15:55:05.688Z,7.17
2019-04-10T16:00:10.777Z,7.23
2019-04-10T16:05:15.471Z,6.80
2019-04-10T16:10:33.559Z,7.10
2019-04-10T16:15:42.881Z,7.20
2019-04-10T16:20:49.049Z,7.37
2019-04-10T16:25:54.573Z,7.63
2019-04-10T16:30:59.282Z,7.30
2019-04-10T16:36:05.162Z,6.97
2019-04-10T16:41:10.854Z,6.70
2019-04-10T16:46:15.407Z,6.50
2019-04-10T16:51:20.768Z,6.80
2019-04-10T16:56:25.516Z,7.17
2019-04-10T17:01:30.954Z,7.27
2019-04-10T17:06:36.526Z,7.43
2019-04-10T17:11:42.162Z,6.53
2019-04-10T17:16:46.521Z,6.60
2019-04-10T17:21:52.107Z,7.87
2019-04-10T17:26:57.316Z,6.90
2019-04-10T17:32:02.677Z,7.13
2019-04-10T17:37:07.573Z,7.23
2019-04-10T17:42:14.530Z,7.10
2019-04-10T17:47:18.906Z,6.57
2019-04-10T17:52:23.336Z,6.80
2019-04-10T17:57:36.259Z,7.13
2019-04-10T18:02:34.750Z,7.00
2019-04-10T18:07:40.563Z,7.50
2019-04-10T18:12:46.087Z,13.20
2019-04-10T18:17:51.594Z,7.20
2019-04-10T18:22:56.038Z,7.30
2019-04-10T18:28:01.174Z,7.43
2019-04-10T18:33:07.227Z,7.70
2019-04-10T18:38:11.594Z,8.07
2019-04-10T18:43:16.107Z,7.13
2019-04-10T18:48:20.800Z,7.10
2019-04-10T18:53:25.247Z,7.90
2019-04-10T18:58:31.707Z,8.47
2019-04-10T19:03:47.979Z,7.30
2019-04-10T19:08:46.132Z,8.07
2019-04-10T19:13:50.984Z,8.17
2019-04-10T19:18:56.775Z,8.07
2019-04-10T19:24:01.581Z,7.80
2019-04-10T19:29:07.427Z,8.53
2019-04-10T19:34:12.805Z,7.90
2019-04-10T19:39:18.179Z,7.97
2019-04-10T19:44:23.209Z,8.70
2019-04-10T19:49:28.182Z,8.33
2019-04-10T19:54:33.243Z,8.23
2019-04-10T19:59:37.769Z,9.17
2019-04-10T20:04:43.277Z,8.20
2019-04-10T20:09:48.574Z,8.87
2019-04-10T20:14:53.368Z,8.07
2019-04-10T20:19:58.697Z,8.13
2019-04-10T20:25:04.184Z,7.40
2019-04-10T20:30:09.956Z,7.87
2019-04-10T20:35:16.320Z,8.27
2019-04-10T20:40:22.305Z,6.90
2019-04-10T20:45:26.853Z,7.60
2019-04-10T20:50:32.124Z,8.00
2019-04-10T20:55:37.694Z,8.00
2019-04-10T21:00:43.071Z,8.17
2019-04-10T21:05:48.714Z,8.63
2019-04-10T21:10:53.093Z,7.67
2019-04-10T21:15:58.356Z,8.20
2019-04-10T21:21:02.917Z,8.05
2019-04-10T21:26:08.679Z,8.63
2019-04-10T21:31:23.705Z,8.80
2019-04-10T21:36:28.362Z,8.07
2019-04-10T21:41:32.803Z,8.43
2019-04-10T21:46:37.194Z,8.63
2019-04-10T21:51:42.744Z,8.87
2019-04-10T21:56:47.298Z,8.23
2019-04-10T22:01:52.896Z,8.00
2019-04-10T22:07:01.662Z,8.40
2019-04-10T22:12:25.005Z,9.03
2019-04-10T22:17:20.397Z,8.77
2019-04-10T22:22:24.763Z,9.27
2019-04-10T22:27:29.602Z,8.20
2019-04-10T22:32:35.232Z,8.03
2019-04-10T22:37:40.007Z,8.37
2019-04-10T22:42:47.027Z,8.50
2019-04-10T22:47:50.625Z,8.13
2019-04-10T22:52:56.997Z,7.90
2019-04-10T22:58:02.530Z,8.43
2019-04-10T23:03:07.224Z,7.90
2019-04-10T23:08:11.667Z,8.03
2019-04-10T23:13:16.137Z,8.30
2019-04-10T23:18:21.377Z,8.63
2019-04-10T23:23:25.893Z,8.80
2019-04-10T23:28:30.232Z,8.53
2019-04-10T23:33:34.655Z,7.90
2019-04-10T23:38:39.593Z,7.83
2019-04-10T23:43:44.066Z,8.03
2019-04-10T23:48:48.927Z,8.10
2019-04-10T23:53:53.374Z,8.53
2019-04-10T23:58:58.272Z,8.13
